createdAt,value
2023-03-31T00:01:01.778Z,2.50
2023-03-31T00:03:29.417Z,2.30
2023-03-31T00:05:59.330Z,2.40
2023-03-31T00:08:30.932Z,2.28
2023-03-31T00:11:04.613Z,1.90
2023-03-31T00:13:31.986Z,2.38
2023-03-31T00:16:09.366Z,2.65
2023-03-31T00:18:37.422Z,2.53
2023-03-31T00:21:25.108Z,2.38
2023-03-31T00:24:06.212Z,2.70
2023-03-31T00:26:35.705Z,2.70
2023-03-31T00:29:06.614Z,2.80
2023-03-31T00:31:36.262Z,2.47
2023-03-31T00:34:04.304Z,2.65
2023-03-31T00:36:32.053Z,2.13
2023-03-31T00:39:09.561Z,2.50
2023-03-31T00:41:39.347Z,2.55
2023-03-31T00:44:24.913Z,1.70
2023-03-31T00:46:58.455Z,2.72
2023-03-31T00:49:45.501Z,2.97
2023-03-31T00:52:28.232Z,3.00
2023-03-31T00:55:01.148Z,3.40
2023-03-31T00:57:32.699Z,2.50
2023-03-31T01:00:18.626Z,1.85
2023-03-31T01:02:59.351Z,1.48
2023-03-31T01:05:39.933Z,1.73
2023-03-31T01:08:07.773Z,2.00
2023-03-31T01:10:42.044Z,1.65
2023-03-31T01:13:12.321Z,1.50
2023-03-31T01:15:40.206Z,1.40
2023-03-31T01:18:10.305Z,1.55
2023-03-31T01:21:23.565Z,1.55
2023-03-31T01:24:02.903Z,1.40
2023-03-31T01:29:25.815Z,1.88
2023-03-31T01:32:39.903Z,1.90
2023-03-31T01:36:04.017Z,1.70
2023-03-31T01:39:36.662Z,1.48
2023-03-31T01:42:23.352Z,1.52
2023-03-31T01:44:59.564Z,1.50
2023-03-31T01:47:44.713Z,1.30
2023-03-31T01:50:26.796Z,1.30
2023-03-31T01:53:17.185Z,1.70
2023-03-31T01:56:09.091Z,1.40
2023-03-31T01:58:44.860Z,1.30
2023-03-31T02:01:25.577Z,1.75
2023-03-31T02:04:10.510Z,1.60
2023-03-31T02:06:44.105Z,1.65
2023-03-31T02:09:18.104Z,2.00
2023-03-31T02:11:48.452Z,1.70
2023-03-31T02:14:22.410Z,1.50
2023-03-31T02:17:19.236Z,1.80
2023-03-31T02:19:51.990Z,2.10
2023-03-31T02:22:22.670Z,1.77
2023-03-31T02:24:53.080Z,1.63
2023-03-31T02:27:33.600Z,1.80
2023-03-31T02:30:04.121Z,1.48
2023-03-31T02:32:37.086Z,1.58
2023-03-31T02:35:07.282Z,1.40
2023-03-31T02:37:34.792Z,1.50
2023-03-31T02:40:10.579Z,1.67
2023-03-31T02:42:39.880Z,2.05
2023-03-31T02:45:57.419Z,1.58
2023-03-31T02:48:53.782Z,1.55
2023-03-31T02:52:06.578Z,1.58
2023-03-31T02:55:18.796Z,1.77
2023-03-31T02:57:51.927Z,1.90
2023-03-31T03:00:55.388Z,1.60
2023-03-31T03:03:41.148Z,1.67
2023-03-31T03:06:39.232Z,1.60
2023-03-31T03:09:39.983Z,2.33
2023-03-31T03:12:59.696Z,2.13
2023-03-31T03:15:34.616Z,2.00
2023-03-31T03:18:04.098Z,2.10
2023-03-31T03:20:34.125Z,2.60
2023-03-31T03:23:01.685Z,2.30
2023-03-31T03:25:30.534Z,1.98
2023-03-31T03:27:58.016Z,2.10
2023-03-31T03:30:25.763Z,1.60
2023-03-31T03:32:54.861Z,2.30
2023-03-31T03:35:22.193Z,1.77
2023-03-31T03:37:49.467Z,1.73
2023-03-31T03:40:16.895Z,1.67
2023-03-31T03:42:44.110Z,1.97
2023-03-31T03:45:11.510Z,2.05
2023-03-31T03:47:38.769Z,2.00
2023-03-31T03:50:06.941Z,1.80
2023-03-31T03:52:34.144Z,1.60
2023-03-31T03:55:02.070Z,1.90
2023-03-31T03:57:30.078Z,1.70
2023-03-31T03:59:57.506Z,1.77
2023-03-31T04:02:27.586Z,1.73
2023-03-31T04:04:55.372Z,1.65
2023-03-31T04:07:22.851Z,1.63
2023-03-31T04:09:50.073Z,1.73
2023-03-31T04:12:17.325Z,1.50
2023-03-31T04:14:44.511Z,1.70
2023-03-31T04:17:16.007Z,1.90
2023-03-31T04:19:43.448Z,1.90
2023-03-31T04:22:11.916Z,1.50
2023-03-31T04:24:39.132Z,1.70
2023-03-31T04:27:07.611Z,1.33
2023-03-31T04:29:37.315Z,1.63
2023-03-31T04:32:04.944Z,1.67
2023-03-31T04:34:37.721Z,1.60
2023-03-31T04:37:05.096Z,1.85
2023-03-31T04:39:32.967Z,1.50
2023-03-31T04:42:01.830Z,1.58
2023-03-31T04:44:29.929Z,2.00
2023-03-31T04:46:58.993Z,1.60
2023-03-31T04:49:26.215Z,1.45
2023-03-31T04:51:53.471Z,1.67
2023-03-31T04:54:21.031Z,1.70
2023-03-31T04:56:48.282Z,1.90
2023-03-31T04:59:15.692Z,1.60
2023-03-31T05:01:45.226Z,2.07
2023-03-31T05:04:12.687Z,1.92
2023-03-31T05:06:40.130Z,1.88
2023-03-31T05:09:09.770Z,2.25
2023-03-31T05:11:38.436Z,1.70
2023-03-31T05:14:06.136Z,2.70
2023-03-31T05:16:34.154Z,2.22
2023-03-31T05:19:01.958Z,4.43
2023-03-31T05:21:30.850Z,2.00
2023-03-31T05:23:58.411Z,1.70
2023-03-31T05:26:26.636Z,2.08
2023-03-31T05:28:54.476Z,1.85
2023-03-31T05:31:22.493Z,2.13
2023-03-31T05:33:49.771Z,2.92
2023-03-31T05:36:18.667Z,3.15
2023-03-31T05:38:47.852Z,2.55
2023-03-31T05:41:17.089Z,2.60
2023-03-31T05:43:44.393Z,2.70
2023-03-31T05:46:11.882Z,2.17
2023-03-31T05:48:39.321Z,2.50
2023-03-31T05:51:06.608Z,1.70
2023-03-31T05:53:34.319Z,2.95
2023-03-31T05:56:07.309Z,5.30
2023-03-31T05:58:36.486Z,2.45
2023-03-31T06:01:19.776Z,3.95
2023-03-31T06:03:47.833Z,1.92
2023-03-31T06:06:16.710Z,2.50
2023-03-31T06:08:46.097Z,2.70
2023-03-31T06:11:19.606Z,3.25
2023-03-31T06:13:47.519Z,2.42
2023-03-31T06:16:17.237Z,3.63
2023-03-31T06:18:46.086Z,2.30
2023-03-31T06:21:17.103Z,2.33
2023-03-31T06:23:46.172Z,2.83
2023-03-31T06:26:20.004Z,2.53
2023-03-31T06:28:47.349Z,2.40
2023-03-31T06:31:18.134Z,2.75
2023-03-31T06:33:46.459Z,3.30
2023-03-31T06:36:17.032Z,2.97
2023-03-31T06:38:44.819Z,1.80
2023-03-31T06:41:15.075Z,2.75
2023-03-31T06:43:42.463Z,2.47
2023-03-31T06:46:10.771Z,2.70
2023-03-31T06:51:08.037Z,3.50
2023-03-31T06:53:35.982Z,2.28
2023-03-31T06:56:05.327Z,3.30
2023-03-31T06:58:33.153Z,2.90
2023-03-31T07:01:04.627Z,5.00
2023-03-31T07:03:33.172Z,2.53
2023-03-31T07:08:28.591Z,2.45
2023-03-31T07:10:59.571Z,3.10
2023-03-31T07:13:27.889Z,3.47
2023-03-31T07:18:26.451Z,3.00
2023-03-31T07:20:53.910Z,2.70
2023-03-31T07:23:21.465Z,3.47
2023-03-31T07:25:49.251Z,3.80
2023-03-31T07:28:17.144Z,3.10
2023-03-31T07:30:44.611Z,2.55
2023-03-31T07:33:11.853Z,2.77
2023-03-31T07:35:41.429Z,3.33
2023-03-31T07:38:13.142Z,3.00
2023-03-31T07:40:43.544Z,2.55
2023-03-31T07:43:12.102Z,2.92
2023-03-31T07:45:41.107Z,3.22
2023-03-31T07:48:08.428Z,3.13
2023-03-31T07:50:36.587Z,2.97
2023-03-31T07:53:08.004Z,3.28
2023-03-31T07:55:35.568Z,3.22
2023-03-31T07:58:02.842Z,2.92
2023-03-31T08:00:30.128Z,2.70
2023-03-31T08:02:57.418Z,2.75
2023-03-31T08:05:24.820Z,3.75
2023-03-31T08:07:52.299Z,3.50
2023-03-31T08:10:26.487Z,2.60
2023-03-31T08:12:54.240Z,3.60
2023-03-31T08:15:21.747Z,3.83
2023-03-31T08:17:49.002Z,5.33
2023-03-31T08:20:16.457Z,3.30
2023-03-31T08:22:43.718Z,3.30
2023-03-31T08:25:11.717Z,3.13
2023-03-31T08:30:11.406Z,4.13
2023-03-31T08:32:38.753Z,4.03
2023-03-31T08:35:07.084Z,4.93
2023-03-31T08:40:04.085Z,5.25
2023-03-31T08:42:44.136Z,3.70
2023-03-31T08:45:39.847Z,4.28
2023-03-31T08:48:49.066Z,3.70
2023-03-31T08:51:22.019Z,4.30
2023-03-31T08:53:59.892Z,3.78
2023-03-31T08:56:28.133Z,5.40
2023-03-31T08:58:55.956Z,5.20
2023-03-31T09:02:02.409Z,3.33
2023-03-31T09:04:32.701Z,3.67
2023-03-31T09:07:23.651Z,3.40
2023-03-31T09:09:50.794Z,3.42
2023-03-31T09:12:29.433Z,3.95
2023-03-31T09:15:10.572Z,3.45
2023-03-31T09:17:50.124Z,3.30
2023-03-31T09:20:38.347Z,4.60
2023-03-31T09:23:27.256Z,4.38
2023-03-31T09:25:57.521Z,3.90
2023-03-31T09:28:40.531Z,4.22
2023-03-31T09:31:18.452Z,6.28
2023-03-31T09:33:47.603Z,4.00
2023-03-31T09:36:24.015Z,7.75
2023-03-31T09:38:51.796Z,4.13
2023-03-31T09:41:19.858Z,4.75
2023-03-31T09:43:49.752Z,3.30
2023-03-31T09:46:35.170Z,4.15
2023-03-31T09:49:15.691Z,4.15
2023-03-31T09:51:49.156Z,4.05
2023-03-31T09:54:41.624Z,3.90
2023-03-31T09:57:29.914Z,4.45
2023-03-31T10:02:51.212Z,4.22
2023-03-31T10:05:41.407Z,4.28
2023-03-31T10:08:12.101Z,4.18
2023-03-31T10:10:44.582Z,5.00
2023-03-31T10:13:26.751Z,4.03
2023-03-31T10:16:08.486Z,4.10
2023-03-31T10:18:39.599Z,4.03
2023-03-31T10:21:21.245Z,3.72
2023-03-31T10:23:50.499Z,4.07
2023-03-31T10:26:26.717Z,5.30
2023-03-31T10:28:55.636Z,4.30
2023-03-31T10:31:28.123Z,6.20
2023-03-31T10:33:56.468Z,4.85
2023-03-31T10:38:57.404Z,4.32
2023-03-31T10:41:31.058Z,4.20
2023-03-31T10:44:01.431Z,4.18
2023-03-31T10:46:50.389Z,3.33
2023-03-31T10:49:23.622Z,4.18
2023-03-31T10:52:03.148Z,3.88
2023-03-31T10:54:31.573Z,3.78
2023-03-31T10:57:05.811Z,3.78
2023-03-31T11:00:12.531Z,4.63
2023-03-31T11:02:59.812Z,3.25
2023-03-31T11:05:33.682Z,3.50
2023-03-31T11:08:24.438Z,3.47
2023-03-31T11:11:13.416Z,3.20
2023-03-31T11:14:12.851Z,3.45
2023-03-31T11:17:09.129Z,3.40
2023-03-31T11:19:51.512Z,4.47
2023-03-31T11:22:27.566Z,6.25
2023-03-31T11:25:18.208Z,5.45
2023-03-31T11:28:26.439Z,4.45
2023-03-31T11:31:17.803Z,4.10
2023-03-31T11:34:09.711Z,4.38
2023-03-31T11:36:46.092Z,5.00
2023-03-31T11:40:08.094Z,6.18
2023-03-31T11:42:41.474Z,4.93
2023-03-31T11:45:23.348Z,6.55
2023-03-31T11:48:06.192Z,14.98
2023-03-31T11:50:40.320Z,12.18
2023-03-31T11:53:24.834Z,7.40
2023-03-31T11:55:56.058Z,4.57
2023-03-31T11:58:36.799Z,5.53
2023-03-31T12:01:15.235Z,4.00
2023-03-31T12:03:57.477Z,4.18
2023-03-31T12:06:35.268Z,4.22
2023-03-31T12:09:33.929Z,4.55
2023-03-31T12:12:28.177Z,4.15
2023-03-31T12:15:26.149Z,4.10
2023-03-31T12:18:18.523Z,5.63
2023-03-31T12:20:56.761Z,5.63
2023-03-31T12:23:30.097Z,7.40
2023-03-31T12:26:28.306Z,6.10
2023-03-31T12:29:03.593Z,3.90
2023-03-31T12:31:33.415Z,3.90
2023-03-31T12:34:07.198Z,4.68
2023-03-31T12:37:14.152Z,7.88
2023-03-31T12:40:05.837Z,3.75
2023-03-31T12:42:37.058Z,4.13
2023-03-31T12:45:28.423Z,3.63
2023-03-31T12:48:26.385Z,3.95
2023-03-31T12:51:20.837Z,4.93
2023-03-31T12:54:06.773Z,4.15
2023-03-31T12:57:09.213Z,3.53
2023-03-31T12:59:47.219Z,4.10
2023-03-31T13:02:17.034Z,4.38
2023-03-31T13:04:44.843Z,4.28
2023-03-31T13:07:28.134Z,3.53
2023-03-31T13:10:12.896Z,4.57
2023-03-31T13:12:40.982Z,5.82
2023-03-31T13:15:14.823Z,8.43
2023-03-31T13:17:58.928Z,3.97
2023-03-31T13:20:36.687Z,4.85
2023-03-31T13:23:23.567Z,6.40
2023-03-31T13:25:58.148Z,5.40
2023-03-31T13:28:32.435Z,6.78
2023-03-31T13:31:03.920Z,5.20
2023-03-31T13:33:58.548Z,4.38
2023-03-31T13:36:34.779Z,5.75
2023-03-31T13:39:47.132Z,4.32
2023-03-31T13:43:01.767Z,5.20
2023-03-31T13:46:04.108Z,4.57
2023-03-31T13:48:59.231Z,5.38
2023-03-31T13:51:54.802Z,5.45
2023-03-31T13:54:50.769Z,6.35
2023-03-31T13:57:45.835Z,5.30
2023-03-31T14:00:28.116Z,5.18
2023-03-31T14:03:14.036Z,4.78
2023-03-31T14:06:03.072Z,5.20
2023-03-31T14:08:39.241Z,4.60
2023-03-31T14:11:30.258Z,4.95
2023-03-31T14:14:15.686Z,4.22
2023-03-31T14:16:54.240Z,4.88
2023-03-31T14:20:07.680Z,4.28
2023-03-31T14:22:56.882Z,4.93
2023-03-31T14:26:11.905Z,5.20
2023-03-31T14:29:21.688Z,4.60
2023-03-31T14:32:06.958Z,4.70
2023-03-31T14:34:45.533Z,4.30
2023-03-31T14:37:18.017Z,4.50
2023-03-31T14:39:51.381Z,4.47
2023-03-31T14:42:22.349Z,3.88
2023-03-31T14:44:49.869Z,4.95
2023-03-31T14:47:28.733Z,4.97
2023-03-31T14:50:17.312Z,4.90
2023-03-31T14:52:51.066Z,4.35
2023-03-31T14:55:25.192Z,5.70
2023-03-31T14:57:59.958Z,4.85
2023-03-31T15:00:33.433Z,4.43
2023-03-31T15:03:02.345Z,5.55
2023-03-31T15:05:37.638Z,4.93
2023-03-31T15:08:12.036Z,8.80
2023-03-31T15:10:50.359Z,7.03
2023-03-31T15:13:35.479Z,6.00
2023-03-31T15:16:31.616Z,5.10
2023-03-31T15:19:05.056Z,5.13
2023-03-31T15:21:37.943Z,5.00
2023-03-31T15:24:06.295Z,5.20
2023-03-31T15:29:13.812Z,5.15
2023-03-31T15:31:41.961Z,5.35
2023-03-31T15:36:57.863Z,11.20
2023-03-31T15:39:32.891Z,6.93
2023-03-31T15:42:04.223Z,8.50
2023-03-31T15:44:56.682Z,6.90
2023-03-31T15:47:32.335Z,5.35
2023-03-31T15:50:13.414Z,23.27
2023-03-31T15:52:49.746Z,11.40
2023-03-31T15:55:32.154Z,14.63
2023-03-31T15:58:01.870Z,12.85
2023-03-31T16:00:32.095Z,8.20
2023-03-31T16:03:02.561Z,6.90
2023-03-31T16:05:57.505Z,5.90
2023-03-31T16:08:43.047Z,8.00
2023-03-31T16:11:21.585Z,6.80
2023-03-31T16:13:53.969Z,5.43
2023-03-31T16:16:25.904Z,6.68
2023-03-31T16:19:06.053Z,9.80
2023-03-31T16:21:43.669Z,9.13
2023-03-31T16:24:11.294Z,9.07
2023-03-31T16:26:38.803Z,6.38
2023-03-31T16:29:06.775Z,8.00
2023-03-31T16:31:38.060Z,8.07
2023-03-31T16:34:09.027Z,8.40
2023-03-31T16:36:36.497Z,10.20
2023-03-31T16:39:06.229Z,9.02
2023-03-31T16:41:35.904Z,7.53
2023-03-31T16:44:03.377Z,7.43
2023-03-31T16:46:30.613Z,6.77
2023-03-31T16:48:57.927Z,6.90
2023-03-31T16:51:25.213Z,6.07
2023-03-31T16:53:52.581Z,5.95
2023-03-31T16:56:19.789Z,5.55
2023-03-31T16:58:47.121Z,5.10
2023-03-31T17:01:14.575Z,4.47
2023-03-31T17:03:43.221Z,4.33
2023-03-31T17:06:13.381Z,5.78
2023-03-31T17:08:41.125Z,7.75
2023-03-31T17:11:12.809Z,8.88
2023-03-31T17:13:42.298Z,8.50
2023-03-31T17:16:20.192Z,7.10
2023-03-31T17:18:53.128Z,7.43
2023-03-31T17:21:23.790Z,9.90
2023-03-31T17:23:51.200Z,34.83
2023-03-31T17:26:18.672Z,25.48
2023-03-31T17:28:46.325Z,17.27
2023-03-31T17:31:20.648Z,15.25
2023-03-31T17:33:48.586Z,7.30
2023-03-31T17:36:17.194Z,8.00
2023-03-31T17:38:45.270Z,8.23
2023-03-31T17:41:14.289Z,8.68
2023-03-31T17:43:46.239Z,8.00
2023-03-31T17:46:14.017Z,6.75
2023-03-31T17:48:42.353Z,6.20
2023-03-31T17:51:18.926Z,4.78
2023-03-31T17:53:48.168Z,4.20
2023-03-31T17:56:17.235Z,3.95
2023-03-31T17:58:44.715Z,3.60
2023-03-31T18:01:13.736Z,3.70
2023-03-31T18:03:41.441Z,3.92
2023-03-31T18:06:14.863Z,2.95
2023-03-31T18:08:43.415Z,3.75
2023-03-31T18:11:11.186Z,4.28
2023-03-31T18:13:39.013Z,3.10
2023-03-31T18:16:09.765Z,3.50
2023-03-31T18:18:38.263Z,3.90
2023-03-31T18:23:41.517Z,3.88
2023-03-31T18:26:11.421Z,4.97
2023-03-31T18:28:40.901Z,2.95
2023-03-31T18:31:09.666Z,3.38
2023-03-31T18:33:37.601Z,3.80
2023-03-31T18:36:07.220Z,3.10
2023-03-31T18:38:37.072Z,7.88
2023-03-31T18:41:04.475Z,6.85
2023-03-31T18:43:33.367Z,5.28
2023-03-31T18:46:01.594Z,4.53
2023-03-31T18:48:29.424Z,4.72
2023-03-31T18:50:56.803Z,4.75
2023-03-31T18:53:25.333Z,3.67
2023-03-31T18:55:56.698Z,4.63
2023-03-31T18:58:26.705Z,4.43
2023-03-31T19:00:53.978Z,4.38
2023-03-31T19:03:21.420Z,4.28
2023-03-31T19:05:49.842Z,4.50
2023-03-31T19:08:17.137Z,5.00
2023-03-31T19:10:44.423Z,4.80
2023-03-31T19:13:16.248Z,5.50
2023-03-31T19:15:43.819Z,5.53
2023-03-31T19:18:15.325Z,5.45
2023-03-31T19:20:43.267Z,6.05
2023-03-31T19:23:11.023Z,6.10
2023-03-31T19:25:38.488Z,6.82
2023-03-31T19:28:06.030Z,7.35
2023-03-31T19:30:34.200Z,6.97
2023-03-31T19:33:03.239Z,5.80
2023-03-31T19:35:30.738Z,5.65
2023-03-31T19:37:58.112Z,5.40
2023-03-31T19:40:25.289Z,5.30
2023-03-31T19:42:52.561Z,5.03
2023-03-31T19:45:19.767Z,4.72
2023-03-31T19:47:47.092Z,6.20
2023-03-31T19:50:14.355Z,5.88
2023-03-31T19:52:42.462Z,5.88
2023-03-31T19:55:09.862Z,5.40
2023-03-31T19:57:37.444Z,6.18
2023-03-31T20:00:05.493Z,7.40
2023-03-31T20:02:33.394Z,6.28
2023-03-31T20:05:01.966Z,7.50
2023-03-31T20:07:30.409Z,6.85
2023-03-31T20:09:57.666Z,8.10
2023-03-31T20:12:24.952Z,7.25
2023-03-31T20:14:52.712Z,6.65
2023-03-31T20:17:20.859Z,6.50
2023-03-31T20:19:48.102Z,7.32
2023-03-31T20:22:15.307Z,6.00
2023-03-31T20:24:42.532Z,7.03
2023-03-31T20:27:09.928Z,6.00
2023-03-31T20:29:37.308Z,6.30
2023-03-31T20:32:05.978Z,4.75
2023-03-31T20:34:34.223Z,4.70
2023-03-31T20:37:02.420Z,5.13
2023-03-31T20:39:29.714Z,4.60
2023-03-31T20:41:57.043Z,4.43
2023-03-31T20:44:24.357Z,5.05
2023-03-31T20:46:52.589Z,4.28
2023-03-31T20:51:47.771Z,4.25
2023-03-31T20:54:15.080Z,4.03
2023-03-31T20:56:42.582Z,4.15
2023-03-31T20:59:15.462Z,4.30
2023-03-31T21:01:45.315Z,4.20
2023-03-31T21:04:13.201Z,3.90
2023-03-31T21:06:44.743Z,4.40
2023-03-31T21:09:13.591Z,4.22
2023-03-31T21:11:40.969Z,4.03
2023-03-31T21:14:15.229Z,4.20
2023-03-31T21:16:43.027Z,4.32
2023-03-31T21:19:10.932Z,4.10
2023-03-31T21:21:41.368Z,4.35
2023-03-31T21:24:11.810Z,5.13
2023-03-31T21:26:40.085Z,5.00
2023-03-31T21:29:07.952Z,4.78
2023-03-31T21:31:35.351Z,5.65
2023-03-31T21:34:03.517Z,5.30
2023-03-31T21:36:30.915Z,5.65
2023-03-31T21:38:58.271Z,5.70
2023-03-31T21:41:30.106Z,5.20
2023-03-31T21:44:01.716Z,5.95
2023-03-31T21:46:33.543Z,6.00
2023-03-31T21:49:01.841Z,5.30
2023-03-31T21:51:29.280Z,6.35
2023-03-31T21:53:57.293Z,7.10
2023-03-31T21:56:27.857Z,7.05
2023-03-31T21:58:55.795Z,6.07
2023-03-31T22:01:23.752Z,6.00
2023-03-31T22:03:52.207Z,7.70
2023-03-31T22:06:19.978Z,6.88
2023-03-31T22:08:47.190Z,6.97
2023-03-31T22:11:15.195Z,6.60
2023-03-31T22:13:42.583Z,7.22
2023-03-31T22:16:21.677Z,6.43
2023-03-31T22:18:50.498Z,5.43
2023-03-31T22:21:22.945Z,5.22
2023-03-31T22:23:53.313Z,5.28
2023-03-31T22:26:21.978Z,5.07
2023-03-31T22:28:49.993Z,5.82
2023-03-31T22:31:17.352Z,6.10
2023-03-31T22:33:45.608Z,6.10
2023-03-31T22:36:13.159Z,5.72
2023-03-31T22:38:40.561Z,4.80
2023-03-31T22:41:08.149Z,4.97
2023-03-31T22:43:35.380Z,4.57
2023-03-31T22:46:05.432Z,4.43
2023-03-31T22:48:34.097Z,4.20
2023-03-31T22:51:14.961Z,4.63
2023-03-31T22:53:42.237Z,4.13
2023-03-31T22:56:12.422Z,4.45
2023-03-31T22:58:39.614Z,4.28
2023-03-31T23:01:09.988Z,4.10
2023-03-31T23:03:37.558Z,3.80
2023-03-31T23:06:06.743Z,4.33
2023-03-31T23:08:38.090Z,4.53
2023-03-31T23:11:09.438Z,4.28
2023-03-31T23:13:37.173Z,4.45
2023-03-31T23:16:06.932Z,3.78
2023-03-31T23:18:36.056Z,4.93
2023-03-31T23:21:07.312Z,4.63
2023-03-31T23:23:34.609Z,5.05
2023-03-31T23:26:06.546Z,4.28
2023-03-31T23:28:37.487Z,3.88
2023-03-31T23:31:05.169Z,4.65
2023-03-31T23:33:32.392Z,4.53
2023-03-31T23:36:03.720Z,5.20
2023-03-31T23:38:32.687Z,4.65
2023-03-31T23:41:01.089Z,5.15
2023-03-31T23:45:56.636Z,5.35
2023-03-31T23:48:24.010Z,5.32
2023-03-31T23:50:51.359Z,6.00
2023-03-31T23:53:18.810Z,4.47
2023-03-31T23:56:02.880Z,5.30
2023-03-31T23:58:31.804Z,4.68
